Language selection

Features

My Weather Profile Weather Topics  | 

Bowie - southern half: Past 24 Hour Conditions

 

West Moresby - 46208

09:00 AM PST 24 November 2020Buoy position: 52.52N 132.68W
Disclaimer

This table is a summary of hourly weather conditions for the past 24 hours.
Please note that these observations might not always be representative of weather conditions over their associated marine area.

Date / Time
(PST)
Wind(knots) Wave height(m) Wave period(s) Pressure(kPa) Air tempC) Water tempC)
24 November 2020
9:00 W 22 gust 27 9.1 18.0 99.8 8 N/A
8:00 WSW 22 gust 29 9.3 18.0 99.8 8 N/A
7:00 SW 25 gust 33 8.5 17.0 99.8 8 N/A
6:00 SW 25 gust 39 8.6 14.0 99.8 8 N/A
5:00 SW 27 gust 33 8.3 16.0 99.9 8 N/A
4:00 SW 25 gust 31 6.8 14.0 100.0 8 N/A
3:00 SW 23 gust 31 5.5 11.0 100.1 8 N/A
2:00 SW 23 gust 31 5.1 12.0 100.1 9 N/A
1:00 WSW 19 gust 25 4.5 10.0 100.1 8 N/A
0:00 SW 22 gust 27 4.2 10.0 100.1 9 N/A
23 November 2020
23:00 WSW 19 gust 23 3.8 10.0 100.1 9 N/A
22:00 WSW 17 gust 23 3.9 9.0 100.2 9 N/A
21:00 WSW 19 gust 23 3.8 9.0 100.1 10 N/A
20:00 W 23 gust 29 3.7 8.0 100.1 10 N/A
19:00 SW 17 gust 22 3.5 10.0 100.0 10 N/A
18:00 WSW 17 gust 22 3.4 11.0 100.0 9 N/A
17:00 WSW 25 gust 33 3.2 12.0 100.0 9 N/A
16:00 SSW 19 gust 23 3.3 11.0 100.0 10 N/A
15:00 SSW 19 gust 25 3.4 11.0 100.1 10 N/A
14:00 SSW 19 gust 23 3.2 11.0 100.1 10 N/A
13:00 SSW 19 gust 23 3.3 11.0 100.2 10 N/A
12:00 S 22 gust 25 3.5 11.0 100.2 9 N/A
11:00 SSE 27 gust 33 3.4 12.0 100.3 8 N/A
10:00 SSE 27 gust 33 3.3 12.0 100.4 7 N/A
9:00 SSE 25 gust 31 3.2 13.0 100.5 7 N/A

Zoom-in to make a selection

Map of Pacific - North Coast marine weather areas Middle Nomad - 46004 South Nomad - 46036 Dixon Entrance Central - 46145 South Moresby - 46147 Nanakwa Shoal - 46181 North Hecate Strait - 46183 North Nomad - 46184 South Hecate Strait - 46185 West Sea Otter - 46204 West Dixon Entrance - 46205 East Dellwood - 46207 West Moresby - 46208 Sartine Island Cape St.James Kindakun Rocks Langara Island Masset Municipal Airport Rose Spit Sandspit Airport Bella Bella Airport Bella Coola Airport Bonilla Island Cathedral Point Cumshewa Island Grey Islet Holland Rock Lucy Islands Lightstation Prince Rupert Airport
Legend:
buoy Buoy
land station Land Station

Pacific - North Coast Area

Another Region

What we are doing

Features

Heading to Banff or Jasper National Parks this winter?

Go prepared with Highway 93 forecasts. North and South highway regions are available in the Alberta text forecast bulletin. (Photo by: Natalie Anderson)

Date modified: